createdAt,value
2023-04-15T00:01:00.262Z,8.72
2023-04-15T00:03:27.444Z,8.67
2023-04-15T00:05:54.243Z,8.68
2023-04-15T00:08:20.859Z,8.65
2023-04-15T00:10:47.878Z,8.67
2023-04-15T00:13:15.311Z,8.62
2023-04-15T00:15:42.678Z,8.59
2023-04-15T00:18:09.439Z,8.57
2023-04-15T00:20:36.017Z,8.53
2023-04-15T00:23:04.317Z,8.63
2023-04-15T00:25:31.320Z,8.60
2023-04-15T00:27:58.289Z,8.50
2023-04-15T00:30:25.730Z,8.36
2023-04-15T00:32:52.715Z,8.29
2023-04-15T00:35:19.260Z,8.24
2023-04-15T00:37:46.378Z,8.15
2023-04-15T00:40:13.762Z,8.13
2023-04-15T00:42:40.793Z,8.06
2023-04-15T00:45:08.986Z,8.03
2023-04-15T00:47:37.791Z,7.99
2023-04-15T00:50:05.122Z,7.94
2023-04-15T00:52:32.120Z,7.80
2023-04-15T00:54:59.622Z,7.70
2023-04-15T00:57:27.228Z,7.66
2023-04-15T00:59:55.949Z,7.60
2023-04-15T01:02:23.407Z,7.46
2023-04-15T01:04:50.818Z,7.42
2023-04-15T01:07:17.459Z,7.33
2023-04-15T01:09:44.145Z,7.24
2023-04-15T01:12:12.917Z,7.19
2023-04-15T01:14:39.576Z,7.12
2023-04-15T01:17:06.087Z,6.98
2023-04-15T01:19:33.009Z,7.01
2023-04-15T01:21:59.617Z,6.85
2023-04-15T01:24:28.218Z,6.88
2023-04-15T01:26:54.915Z,6.81
2023-04-15T01:29:21.642Z,6.89
2023-04-15T01:31:53.059Z,6.96
2023-04-15T01:34:19.652Z,6.94
2023-04-15T01:36:46.352Z,6.96
2023-04-15T01:39:13.486Z,6.95
2023-04-15T01:41:40.926Z,7.07
2023-04-15T01:44:08.075Z,7.07
2023-04-15T01:46:36.102Z,7.05
2023-04-15T01:49:02.814Z,7.03
2023-04-15T01:51:29.454Z,6.94
2023-04-15T01:53:58.940Z,6.88
2023-04-15T01:56:25.518Z,6.88
2023-04-15T01:58:52.473Z,6.89
2023-04-15T02:01:22.307Z,6.80
2023-04-15T02:03:49.148Z,6.79
2023-04-15T02:06:16.011Z,6.69
2023-04-15T02:08:42.568Z,6.62
2023-04-15T02:11:09.360Z,6.60
2023-04-15T02:13:36.345Z,6.58
2023-04-15T02:16:03.572Z,6.64
2023-04-15T02:18:30.551Z,6.70
2023-04-15T02:20:58.485Z,6.70
2023-04-15T02:23:25.436Z,6.72
2023-04-15T02:25:53.305Z,6.71
2023-04-15T02:28:21.028Z,6.63
2023-04-15T02:30:50.782Z,6.61
2023-04-15T02:33:17.509Z,6.56
2023-04-15T02:35:45.387Z,6.53
2023-04-15T02:38:12.173Z,6.44
2023-04-15T02:40:38.720Z,6.33
2023-04-15T02:43:07.159Z,6.31
2023-04-15T02:45:33.941Z,6.31
2023-04-15T02:48:03.962Z,6.33
2023-04-15T02:50:31.692Z,6.33
2023-04-15T02:52:58.161Z,6.31
2023-04-15T02:55:24.691Z,6.27
2023-04-15T02:57:51.434Z,6.20
2023-04-15T03:00:18.092Z,6.14
2023-04-15T03:02:46.196Z,5.94
2023-04-15T03:05:14.407Z,5.81
2023-04-15T03:07:41.061Z,5.77
2023-04-15T03:10:08.715Z,5.65
2023-04-15T03:12:35.267Z,5.60
2023-04-15T03:15:02.159Z,5.40
2023-04-15T03:17:28.693Z,5.34
2023-04-15T03:19:55.422Z,5.41
2023-04-15T03:22:21.975Z,5.44
2023-04-15T03:24:48.580Z,5.54
2023-04-15T03:27:15.093Z,5.69
2023-04-15T03:29:41.590Z,5.75
2023-04-15T03:32:08.049Z,5.82
2023-04-15T03:34:34.514Z,5.86
2023-04-15T03:37:01.069Z,5.79
2023-04-15T03:39:27.554Z,5.76
2023-04-15T03:41:54.086Z,5.71
2023-04-15T03:44:20.877Z,5.54
2023-04-15T03:46:47.421Z,5.40
2023-04-15T03:49:14.248Z,5.37
2023-04-15T03:51:40.762Z,5.35
2023-04-15T03:54:07.305Z,5.27
2023-04-15T03:56:33.758Z,5.26
2023-04-15T03:59:00.576Z,5.22
2023-04-15T04:01:27.300Z,5.19
2023-04-15T04:03:54.061Z,5.22
2023-04-15T04:06:20.899Z,5.24
2023-04-15T04:08:47.403Z,5.26
2023-04-15T04:11:14.147Z,5.23
2023-04-15T04:13:40.670Z,5.20
2023-04-15T04:16:07.248Z,5.10
2023-04-15T04:18:33.985Z,5.12
2023-04-15T04:21:00.720Z,5.05
2023-04-15T04:23:27.223Z,5.00
2023-04-15T04:25:53.705Z,4.90
2023-04-15T04:28:20.231Z,4.92
2023-04-15T04:30:46.766Z,4.87
2023-04-15T04:33:13.310Z,4.93
2023-04-15T04:35:39.860Z,4.92
2023-04-15T04:38:06.347Z,4.89
2023-04-15T04:40:32.890Z,4.84
2023-04-15T04:42:59.978Z,4.80
2023-04-15T04:45:27.161Z,4.75
2023-04-15T04:47:53.853Z,4.75
2023-04-15T04:50:21.055Z,4.72
2023-04-15T04:52:47.803Z,4.71
2023-04-15T04:55:14.311Z,4.68
2023-04-15T04:57:40.964Z,4.64
2023-04-15T05:00:09.226Z,4.58
2023-04-15T05:02:36.225Z,4.64
2023-04-15T05:05:02.942Z,4.59
2023-04-15T05:07:29.457Z,4.57
2023-04-15T05:09:57.191Z,4.57
2023-04-15T05:12:23.950Z,4.64
2023-04-15T05:14:50.606Z,4.66
2023-04-15T05:17:17.115Z,4.74
2023-04-15T05:19:43.593Z,4.71
2023-04-15T05:22:10.160Z,4.79
2023-04-15T05:24:36.686Z,4.84
2023-04-15T05:27:03.678Z,4.97
2023-04-15T05:29:30.625Z,5.12
2023-04-15T05:31:57.269Z,5.59
2023-04-15T05:34:23.746Z,6.18
2023-04-15T05:36:50.516Z,6.63
2023-04-15T05:39:17.047Z,7.01
2023-04-15T05:41:43.579Z,7.27
2023-04-15T05:44:10.262Z,7.33
2023-04-15T05:46:37.230Z,7.07
2023-04-15T05:49:04.154Z,6.80
2023-04-15T05:51:31.127Z,6.69
2023-04-15T05:53:57.666Z,6.59
2023-04-15T05:56:24.840Z,6.42
2023-04-15T05:58:53.685Z,6.37
2023-04-15T06:01:20.710Z,6.33
2023-04-15T06:03:47.297Z,6.32
2023-04-15T06:06:14.340Z,6.27
2023-04-15T06:08:41.337Z,6.23
2023-04-15T06:11:07.884Z,6.38
2023-04-15T06:13:34.943Z,6.50
2023-04-15T06:16:01.584Z,6.46
2023-04-15T06:18:28.166Z,6.48
2023-04-15T06:20:54.684Z,6.59
2023-04-15T06:23:21.231Z,6.78
2023-04-15T06:25:47.968Z,7.01
2023-04-15T06:28:14.420Z,7.35
2023-04-15T06:30:41.132Z,7.94
2023-04-15T06:33:07.679Z,8.53
2023-04-15T06:35:34.334Z,8.58
2023-04-15T06:38:00.828Z,8.67
2023-04-15T06:40:27.849Z,8.82
2023-04-15T06:42:55.317Z,9.02
2023-04-15T06:45:21.909Z,9.64
2023-04-15T06:47:48.520Z,10.18
2023-04-15T06:50:15.145Z,10.27
2023-04-15T06:52:41.704Z,9.97
2023-04-15T06:55:08.724Z,9.74
2023-04-15T06:57:35.324Z,9.67
2023-04-15T07:00:02.513Z,9.83
2023-04-15T07:02:29.164Z,9.88
2023-04-15T07:04:56.964Z,10.07
2023-04-15T07:07:23.548Z,10.22
2023-04-15T07:09:50.181Z,10.53
2023-04-15T07:12:16.683Z,11.36
2023-04-15T07:14:43.394Z,12.06
2023-04-15T07:17:10.006Z,12.12
2023-04-15T07:19:36.569Z,11.60
2023-04-15T07:22:03.078Z,11.07
2023-04-15T07:24:30.158Z,10.89
2023-04-15T07:26:59.560Z,11.13
2023-04-15T07:29:27.318Z,11.27
2023-04-15T07:31:53.849Z,11.64
2023-04-15T07:34:21.048Z,11.78
2023-04-15T07:36:50.684Z,11.67
2023-04-15T07:39:17.894Z,11.98
2023-04-15T07:41:44.522Z,11.92
2023-04-15T07:44:11.563Z,11.67
2023-04-15T07:46:38.593Z,11.79
2023-04-15T07:49:05.281Z,11.89
2023-04-15T07:51:32.371Z,12.26
2023-04-15T07:53:59.318Z,12.65
2023-04-15T07:56:26.492Z,12.46
2023-04-15T07:58:53.363Z,12.15
2023-04-15T08:01:19.978Z,11.94
2023-04-15T08:03:47.197Z,11.84
2023-04-15T08:06:14.293Z,11.96
2023-04-15T08:08:40.842Z,12.10
2023-04-15T08:11:07.417Z,11.95
2023-04-15T08:13:34.002Z,11.92
2023-04-15T08:16:20.910Z,12.23
2023-04-15T08:18:51.542Z,12.17
2023-04-15T08:21:20.016Z,12.22
2023-04-15T08:23:48.421Z,12.23
2023-04-15T08:26:15.182Z,12.39
2023-04-15T08:28:42.868Z,12.59
2023-04-15T08:31:09.903Z,12.99
2023-04-15T08:33:36.916Z,12.89
2023-04-15T08:36:03.619Z,12.52
2023-04-15T08:38:30.279Z,12.45
2023-04-15T08:41:00.076Z,12.53
2023-04-15T08:43:34.965Z,12.47
2023-04-15T08:46:02.325Z,12.38
2023-04-15T08:48:29.845Z,12.31
2023-04-15T08:50:57.363Z,12.25
2023-04-15T08:53:24.523Z,12.05
2023-04-15T08:55:52.860Z,11.93
2023-04-15T08:58:19.985Z,11.97
2023-04-15T09:00:46.698Z,11.98
2023-04-15T09:03:13.841Z,12.12
2023-04-15T09:05:40.390Z,12.23
2023-04-15T09:08:09.422Z,12.41
2023-04-15T09:10:36.234Z,12.36
2023-04-15T09:13:02.853Z,12.36
2023-04-15T09:15:30.558Z,12.34
2023-04-15T09:17:57.269Z,12.48
2023-04-15T09:20:24.140Z,12.61
2023-04-15T09:22:53.148Z,12.66
2023-04-15T09:25:22.706Z,12.57
2023-04-15T09:27:49.984Z,12.45
2023-04-15T09:30:16.908Z,12.38
2023-04-15T09:33:00.955Z,12.31
2023-04-15T09:35:28.244Z,12.29
2023-04-15T09:38:07.331Z,12.20
2023-04-15T09:40:42.891Z,12.20
2023-04-15T09:43:12.977Z,12.32
2023-04-15T09:45:49.077Z,12.44
2023-04-15T09:48:17.014Z,12.52
2023-04-15T09:50:45.239Z,12.40
2023-04-15T09:53:15.521Z,12.44
2023-04-15T09:55:46.174Z,12.42
2023-04-15T09:58:21.159Z,12.38
2023-04-15T10:00:51.128Z,12.41
2023-04-15T10:03:22.106Z,12.32
2023-04-15T10:05:50.541Z,12.52
2023-04-15T10:08:22.473Z,12.82
2023-04-15T10:10:49.118Z,12.73
2023-04-15T10:13:19.139Z,12.86
2023-04-15T10:15:54.450Z,12.99
2023-04-15T10:18:27.693Z,13.07
2023-04-15T10:20:55.117Z,13.19
2023-04-15T10:23:24.501Z,13.12
2023-04-15T10:25:53.961Z,13.24
2023-04-15T10:28:23.004Z,13.28
2023-04-15T10:30:50.139Z,13.41
2023-04-15T10:33:22.684Z,13.49
2023-04-15T10:35:51.726Z,13.77
2023-04-15T10:38:45.881Z,13.91
2023-04-15T10:41:21.249Z,14.06
2023-04-15T10:44:02.234Z,13.84
2023-04-15T10:46:47.382Z,13.31
2023-04-15T10:49:15.294Z,12.99
2023-04-15T10:52:02.094Z,13.35
2023-04-15T10:54:28.580Z,13.51
2023-04-15T10:57:09.361Z,13.68
2023-04-15T10:59:58.905Z,13.56
2023-04-15T11:02:48.117Z,13.57
2023-04-15T11:05:16.397Z,13.55
2023-04-15T11:07:56.178Z,13.72
2023-04-15T11:10:42.629Z,13.80
2023-04-15T11:13:12.114Z,13.77
2023-04-15T11:15:47.012Z,13.97
2023-04-15T11:18:13.474Z,13.96
2023-04-15T11:20:50.844Z,13.84
2023-04-15T11:23:38.072Z,14.06
2023-04-15T11:26:09.895Z,14.24
2023-04-15T11:28:47.055Z,14.30
2023-04-15T11:31:15.551Z,14.20
2023-04-15T11:34:02.450Z,13.95
2023-04-15T11:36:32.180Z,13.57
2023-04-15T11:38:59.875Z,13.75
2023-04-15T11:41:26.930Z,14.20
2023-04-15T11:43:55.111Z,14.26
2023-04-15T11:46:40.291Z,14.57
2023-04-15T11:49:06.874Z,14.34
2023-04-15T11:51:34.744Z,13.96
2023-04-15T11:54:01.591Z,14.00
2023-04-15T11:56:28.280Z,14.14
2023-04-15T11:59:02.333Z,14.46
2023-04-15T12:01:39.334Z,14.49
2023-04-15T12:04:25.228Z,14.80
2023-04-15T12:06:52.522Z,14.56
2023-04-15T12:09:20.372Z,14.41
2023-04-15T12:11:58.299Z,14.51
2023-04-15T12:14:32.337Z,14.85
2023-04-15T12:17:04.808Z,14.77
2023-04-15T12:19:36.290Z,14.34
2023-04-15T12:22:10.811Z,14.41
2023-04-15T12:24:39.001Z,14.32
2023-04-15T12:27:07.724Z,14.26
2023-04-15T12:29:38.391Z,14.40
2023-04-15T12:32:12.932Z,14.24
2023-04-15T12:34:44.801Z,14.18
2023-04-15T12:37:16.058Z,14.27
2023-04-15T12:39:44.769Z,14.52
2023-04-15T12:42:12.304Z,14.05
2023-04-15T12:44:40.030Z,13.61
2023-04-15T12:47:13.262Z,13.72
2023-04-15T12:49:40.142Z,13.80
2023-04-15T12:52:06.911Z,13.97
2023-04-15T12:54:34.412Z,13.49
2023-04-15T12:57:01.192Z,13.36
2023-04-15T12:59:29.032Z,13.52
2023-04-15T13:01:57.999Z,13.86
2023-04-15T13:04:24.990Z,13.79
2023-04-15T13:06:51.797Z,14.01
2023-04-15T13:09:18.360Z,13.86
2023-04-15T13:11:47.037Z,13.52
2023-04-15T13:14:14.323Z,13.35
2023-04-15T13:16:44.462Z,13.46
2023-04-15T13:19:11.609Z,13.15
2023-04-15T13:21:40.155Z,12.86
2023-04-15T13:24:08.447Z,12.83
2023-04-15T13:26:35.331Z,12.73
2023-04-15T13:29:01.990Z,12.63
2023-04-15T13:31:28.700Z,12.44
2023-04-15T13:33:57.621Z,12.41
2023-04-15T13:36:24.470Z,12.49
2023-04-15T13:38:51.684Z,12.55
2023-04-15T13:41:18.419Z,12.56
2023-04-15T13:43:45.023Z,12.53
2023-04-15T13:46:11.707Z,12.57
2023-04-15T13:48:38.572Z,12.58
2023-04-15T13:51:05.190Z,12.35
2023-04-15T13:53:38.049Z,12.18
2023-04-15T13:56:07.586Z,12.30
2023-04-15T13:58:34.362Z,12.32
2023-04-15T14:01:02.631Z,12.16
2023-04-15T14:03:49.035Z,12.02
2023-04-15T14:06:15.710Z,12.07
2023-04-15T14:08:42.477Z,12.11
2023-04-15T14:11:09.318Z,12.03
2023-04-15T14:13:36.308Z,11.87
2023-04-15T14:16:03.111Z,11.70
2023-04-15T14:18:30.644Z,11.77
2023-04-15T14:20:57.176Z,11.71
2023-04-15T14:23:23.861Z,11.59
2023-04-15T14:25:51.048Z,11.39
2023-04-15T14:28:17.634Z,11.20
2023-04-15T14:30:44.342Z,11.05
2023-04-15T14:33:10.972Z,11.06
2023-04-15T14:35:37.954Z,11.15
2023-04-15T14:38:05.910Z,11.09
2023-04-15T14:40:33.697Z,11.13
2023-04-15T14:43:00.333Z,11.14
2023-04-15T14:45:27.024Z,11.15
2023-04-15T14:47:53.781Z,11.18
2023-04-15T14:50:22.555Z,11.23
2023-04-15T14:52:49.162Z,11.29
2023-04-15T14:55:15.816Z,11.39
2023-04-15T14:57:43.215Z,11.27
2023-04-15T15:00:12.309Z,11.18
2023-04-15T15:02:42.250Z,11.07
2023-04-15T15:05:10.804Z,10.86
2023-04-15T15:07:39.416Z,10.78
2023-04-15T15:10:07.087Z,10.82
2023-04-15T15:12:33.942Z,11.04
2023-04-15T15:15:02.984Z,11.24
2023-04-15T15:17:31.794Z,11.26
2023-04-15T15:19:58.546Z,11.07
2023-04-15T15:22:26.182Z,10.93
2023-04-15T15:24:53.570Z,10.75
2023-04-15T15:27:20.305Z,10.67
2023-04-15T15:29:47.067Z,10.69
2023-04-15T15:32:13.647Z,10.60
2023-04-15T15:34:40.427Z,10.52
2023-04-15T15:37:06.976Z,10.40
2023-04-15T15:39:34.904Z,10.39
2023-04-15T15:42:01.641Z,10.33
2023-04-15T15:44:45.272Z,10.32
2023-04-15T15:47:12.004Z,10.19
2023-04-15T15:49:39.729Z,10.00
2023-04-15T15:52:06.641Z,9.95
2023-04-15T15:54:33.543Z,10.05
2023-04-15T15:57:00.141Z,10.03
2023-04-15T15:59:26.743Z,10.06
2023-04-15T16:01:53.789Z,10.01
2023-04-15T16:04:20.954Z,9.92
2023-04-15T16:06:48.444Z,9.82
2023-04-15T16:09:15.194Z,9.83
2023-04-15T16:12:11.994Z,9.79
2023-04-15T16:14:48.349Z,9.78
2023-04-15T16:17:32.913Z,9.79
2023-04-15T16:20:01.517Z,9.71
2023-04-15T16:25:32.944Z,9.65
2023-04-15T16:28:22.603Z,9.61
2023-04-15T16:31:12.832Z,9.58
2023-04-15T16:33:41.941Z,9.58
2023-04-15T16:36:12.458Z,9.59
2023-04-15T16:38:53.481Z,9.62
2023-04-15T16:41:22.649Z,9.59
2023-04-15T16:44:17.797Z,9.49
2023-04-15T16:46:47.270Z,9.43
2023-04-15T16:49:23.140Z,9.50
2023-04-15T16:52:17.565Z,9.50
2023-04-15T16:54:52.652Z,9.35
2023-04-15T16:58:00.744Z,9.29
2023-04-15T17:00:23.405Z,9.17
2023-04-15T17:02:52.845Z,9.18
2023-04-15T17:05:19.640Z,9.27
2023-04-15T17:07:51.802Z,9.30
2023-04-15T17:10:18.490Z,9.33
2023-04-15T17:12:45.477Z,9.34
2023-04-15T17:15:34.150Z,9.27
2023-04-15T17:18:08.440Z,9.19
2023-04-15T17:23:16.946Z,9.23
2023-04-15T17:25:44.505Z,9.23
2023-04-15T17:28:12.694Z,9.23
2023-04-15T17:30:39.772Z,9.10
2023-04-15T17:33:56.099Z,9.06
2023-04-15T17:36:03.205Z,9.00
2023-04-15T17:38:51.249Z,8.97
2023-04-15T17:41:24.471Z,9.03
2023-04-15T17:43:56.628Z,9.00
2023-04-15T17:46:23.485Z,9.04
2023-04-15T17:48:50.521Z,9.04
2023-04-15T17:51:20.398Z,9.03
2023-04-15T17:53:49.797Z,8.99
2023-04-15T17:56:27.002Z,8.98
2023-04-15T17:59:01.763Z,9.00
2023-04-15T18:01:34.447Z,8.96
2023-04-15T18:04:01.425Z,8.94
2023-04-15T18:06:41.301Z,8.92
2023-04-15T18:09:12.740Z,8.94
2023-04-15T18:11:52.508Z,8.93
2023-04-15T18:14:33.544Z,8.92
2023-04-15T18:17:04.358Z,8.91
2023-04-15T18:19:35.536Z,8.86
2023-04-15T18:22:09.521Z,8.90
2023-04-15T18:24:41.959Z,8.89
2023-04-15T18:27:11.129Z,8.82
2023-04-15T18:29:47.315Z,8.80
2023-04-15T18:32:23.111Z,8.76
2023-04-15T18:34:49.880Z,8.76
2023-04-15T18:37:42.423Z,8.79
2023-04-15T18:40:13.374Z,8.68
2023-04-15T18:42:42.354Z,8.62
2023-04-15T18:45:15.736Z,8.66
2023-04-15T18:48:03.376Z,8.58
2023-04-15T18:50:29.962Z,8.58
2023-04-15T18:53:05.692Z,8.51
2023-04-15T18:55:33.819Z,8.54
2023-04-15T18:58:09.220Z,8.54
2023-04-15T19:00:39.097Z,8.53
2023-04-15T19:03:09.660Z,8.51
2023-04-15T19:05:38.953Z,8.47
2023-04-15T19:08:12.126Z,8.40
2023-04-15T19:13:28.029Z,8.44
2023-04-15T19:16:07.132Z,8.40
2023-04-15T19:18:56.129Z,8.47
2023-04-15T19:21:38.132Z,8.43
2023-04-15T19:24:32.397Z,8.43
2023-04-15T19:27:04.339Z,8.50
2023-04-15T19:29:33.802Z,8.44
2023-04-15T19:32:07.998Z,8.42
2023-04-15T19:34:39.660Z,8.47
2023-04-15T19:37:10.919Z,8.38
2023-04-15T19:39:59.078Z,8.33
2023-04-15T19:43:08.971Z,8.30
2023-04-15T19:45:34.285Z,8.29
2023-04-15T19:48:24.908Z,8.29
2023-04-15T19:51:11.265Z,8.24
2023-04-15T19:53:47.016Z,8.29
2023-04-15T19:56:34.627Z,8.28
2023-04-15T19:59:14.685Z,8.28
2023-04-15T20:01:42.895Z,8.24
2023-04-15T20:04:13.891Z,8.23
2023-04-15T20:06:44.678Z,8.28
2023-04-15T20:09:50.599Z,8.27
2023-04-15T20:12:49.256Z,8.27
2023-04-15T20:15:13.654Z,8.26
2023-04-15T20:18:02.296Z,8.29
2023-04-15T20:21:09.016Z,8.26
2023-04-15T20:23:44.600Z,8.32
2023-04-15T20:26:20.776Z,8.27
2023-04-15T20:29:02.708Z,8.27
2023-04-15T20:32:26.872Z,8.33
2023-04-15T20:35:31.014Z,8.29
2023-04-15T20:38:15.924Z,8.28
2023-04-15T20:40:46.948Z,8.34
2023-04-15T20:43:16.313Z,8.27
2023-04-15T20:45:53.579Z,8.28
2023-04-15T20:48:27.509Z,8.26
2023-04-15T20:50:55.804Z,8.27
2023-04-15T20:53:29.555Z,8.31
2023-04-15T20:55:57.721Z,8.32
2023-04-15T20:58:28.573Z,8.28
2023-04-15T21:01:09.330Z,8.26
2023-04-15T21:03:38.873Z,8.26
2023-04-15T21:06:09.697Z,8.26
2023-04-15T21:08:36.434Z,8.24
2023-04-15T21:11:03.272Z,8.26
2023-04-15T21:13:29.890Z,8.25
2023-04-15T21:15:56.524Z,8.25
2023-04-15T21:18:36.335Z,8.20
2023-04-15T21:21:13.693Z,8.19
2023-04-15T21:23:44.913Z,8.22
2023-04-15T21:26:51.938Z,8.17
2023-04-15T21:29:14.106Z,8.16
2023-04-15T21:31:59.117Z,8.14
2023-04-15T21:34:38.054Z,8.13
2023-04-15T21:37:54.627Z,8.16
2023-04-15T21:40:16.604Z,8.16
2023-04-15T21:43:03.293Z,8.18
2023-04-15T21:45:39.718Z,8.15
2023-04-15T21:48:29.156Z,8.11
2023-04-15T21:51:09.011Z,8.13
2023-04-15T21:53:36.179Z,8.18
2023-04-15T21:56:13.355Z,8.12
2023-04-15T21:58:41.562Z,8.09
2023-04-15T22:01:19.809Z,8.08
2023-04-15T22:04:16.218Z,8.07
2023-04-15T22:07:07.907Z,8.07
2023-04-15T22:12:45.487Z,8.14
2023-04-15T22:15:14.075Z,8.15
2023-04-15T22:17:42.838Z,8.19
2023-04-15T22:20:17.076Z,8.19
2023-04-15T22:22:44.876Z,8.17
2023-04-15T22:25:13.823Z,8.23
2023-04-15T22:28:01.529Z,8.21
2023-04-15T22:30:44.901Z,8.20
2023-04-15T22:34:08.577Z,8.27
2023-04-15T22:39:10.534Z,8.17
2023-04-15T22:41:37.208Z,8.17
2023-04-15T22:44:03.784Z,8.20
2023-04-15T22:46:30.493Z,8.16
2023-04-15T22:48:57.158Z,8.21
2023-04-15T22:51:26.948Z,8.22
2023-04-15T22:53:54.341Z,8.25
2023-04-15T22:56:22.231Z,8.26
2023-04-15T22:58:49.438Z,8.29
2023-04-15T23:01:17.612Z,8.28
2023-04-15T23:03:57.178Z,8.28
2023-04-15T23:06:31.225Z,8.30
2023-04-15T23:08:57.665Z,8.28
2023-04-15T23:11:24.210Z,8.32
2023-04-15T23:13:50.749Z,8.35
2023-04-15T23:16:17.432Z,8.33
2023-04-15T23:18:44.001Z,8.31
2023-04-15T23:21:10.504Z,8.29
2023-04-15T23:23:36.989Z,8.27
2023-04-15T23:26:04.229Z,8.27
2023-04-15T23:28:30.948Z,8.31
2023-04-15T23:31:00.321Z,8.30
2023-04-15T23:33:27.679Z,8.30
2023-04-15T23:35:54.185Z,8.31
2023-04-15T23:38:20.720Z,8.31
2023-04-15T23:40:47.211Z,8.29
2023-04-15T23:43:13.659Z,8.26
2023-04-15T23:45:40.240Z,8.25
2023-04-15T23:48:06.960Z,8.26
2023-04-15T23:50:33.536Z,8.25
2023-04-15T23:53:00.162Z,8.26
2023-04-15T23:55:26.677Z,8.26
2023-04-15T23:57:53.179Z,8.25
